sensor_id;sensor_type;location;lat;lon;timestamp;noise_LAeq;noise_LA_min;noise_LA_max;noise_LA01;noise_LA95
72466;Laerm;60471;52.150;4.508;2023-03-23T00:01:12;54.39;45.10;72.14;;
72466;Laerm;60471;52.150;4.508;2023-03-23T00:03:40;57.89;48.52;81.29;;
72466;Laerm;60471;52.150;4.508;2023-03-23T01:19:40;54.06;44.03;72.66;;
72466;Laerm;60471;52.150;4.508;2023-03-23T01:22:08;53.61;43.56;77.75;;
72466;Laerm;60471;52.150;4.508;2023-03-23T01:24:34;53.85;43.54;78.53;;
72466;Laerm;60471;52.150;4.508;2023-03-23T01:27:00;51.73;43.39;69.15;;
72466;Laerm;60471;52.150;4.508;2023-03-23T01:29:34;56.83;41.97;87.23;;
72466;Laerm;60471;52.150;4.508;2023-03-23T01:32:01;52.02;42.13;70.77;;
72466;Laerm;60471;52.150;4.508;2023-03-23T01:34:28;52.07;43.35;71.38;;
72466;Laerm;60471;52.150;4.508;2023-03-23T01:36:54;56.80;44.29;85.94;;
72466;Laerm;60471;52.150;4.508;2023-03-23T01:39:21;54.23;46.02;76.05;;
72466;Laerm;60471;52.150;4.508;2023-03-23T01:41:47;53.86;44.77;80.22;;
72466;Laerm;60471;52.150;4.508;2023-03-23T01:46:44;53.81;42.94;72.91;;
72466;Laerm;60471;52.150;4.508;2023-03-23T01:49:17;51.11;44.07;63.57;;
72466;Laerm;60471;52.150;4.508;2023-03-23T01:51:53;56.93;44.80;83.48;;
72466;Laerm;60471;52.150;4.508;2023-03-23T01:54:23;55.53;43.36;79.68;;
72466;Laerm;60471;52.150;4.508;2023-03-23T01:57:04;62.27;43.97;95.76;;
72466;Laerm;60471;52.150;4.508;2023-03-23T01:59:35;52.53;42.93;74.43;;
72466;Laerm;60471;52.150;4.508;2023-03-23T02:02:01;52.28;43.17;72.65;;
72466;Laerm;60471;52.150;4.508;2023-03-23T02:04:30;53.06;44.69;79.88;;
72466;Laerm;60471;52.150;4.508;2023-03-23T02:06:59;54.59;45.30;78.99;;
72466;Laerm;60471;52.150;4.508;2023-03-23T02:09:26;59.78;44.29;88.83;;
72466;Laerm;60471;52.150;4.508;2023-03-23T02:11:53;56.63;45.01;82.25;;
72466;Laerm;60471;52.150;4.508;2023-03-23T02:14:22;60.07;44.86;79.65;;
72466;Laerm;60471;52.150;4.508;2023-03-23T02:23:48;57.19;45.23;82.16;;
72466;Laerm;60471;52.150;4.508;2023-03-23T02:29:35;56.97;45.79;80.20;;
72466;Laerm;60471;52.150;4.508;2023-03-23T02:34:56;58.86;47.23;82.31;;
72466;Laerm;60471;52.150;4.508;2023-03-23T02:37:39;57.45;45.97;78.74;;
72466;Laerm;60471;52.150;4.508;2023-03-23T02:40:25;55.13;46.08;79.08;;
72466;Laerm;60471;52.150;4.508;2023-03-23T02:42:57;58.71;45.02;86.38;;
72466;Laerm;60471;52.150;4.508;2023-03-23T02:45:28;54.17;43.63;78.15;;
72466;Laerm;60471;52.150;4.508;2023-03-23T02:47:57;58.02;47.31;85.23;;
72466;Laerm;60471;52.150;4.508;2023-03-23T02:50:28;59.47;46.16;81.64;;
72466;Laerm;60471;52.150;4.508;2023-03-23T02:52:57;58.19;46.95;88.32;;
72466;Laerm;60471;52.150;4.508;2023-03-23T02:55:27;59.26;46.36;88.84;;
72466;Laerm;60471;52.150;4.508;2023-03-23T02:57:55;57.88;45.74;90.77;;
72466;Laerm;60471;52.150;4.508;2023-03-23T03:00:22;56.53;47.09;79.12;;
72466;Laerm;60471;52.150;4.508;2023-03-23T03:02:52;61.32;47.19;87.39;;
72466;Laerm;60471;52.150;4.508;2023-03-23T03:05:32;57.65;46.27;82.48;;
72466;Laerm;60471;52.150;4.508;2023-03-23T03:11:11;58.75;45.10;80.72;;
72466;Laerm;60471;52.150;4.508;2023-03-23T03:13:58;56.12;47.31;78.77;;
72466;Laerm;60471;52.150;4.508;2023-03-23T03:16:40;55.19;47.89;77.35;;
72466;Laerm;60471;52.150;4.508;2023-03-23T03:19:19;56.79;48.04;77.58;;
72466;Laerm;60471;52.150;4.508;2023-03-23T03:21:49;64.52;51.85;87.37;;
72466;Laerm;60471;52.150;4.508;2023-03-23T03:24:20;61.85;48.32;87.84;;
72466;Laerm;60471;52.150;4.508;2023-03-23T03:26:51;60.75;48.16;86.86;;
72466;Laerm;60471;52.150;4.508;2023-03-23T03:29:29;54.08;48.19;73.66;;
72466;Laerm;60471;52.150;4.508;2023-03-23T03:31:58;56.29;48.69;75.27;;
72466;Laerm;60471;52.150;4.508;2023-03-23T03:34:26;55.69;47.65;76.78;;
72466;Laerm;60471;52.150;4.508;2023-03-23T03:36:55;55.60;47.31;75.85;;
72466;Laerm;60471;52.150;4.508;2023-03-23T03:39:26;57.38;46.73;78.63;;
72466;Laerm;60471;52.150;4.508;2023-03-23T03:42:01;55.49;48.87;71.03;;
72466;Laerm;60471;52.150;4.508;2023-03-23T03:44:31;54.62;46.44;73.42;;
72466;Laerm;60471;52.150;4.508;2023-03-23T03:46:59;52.50;46.95;67.89;;
72466;Laerm;60471;52.150;4.508;2023-03-23T03:49:26;55.06;47.51;73.24;;
72466;Laerm;60471;52.150;4.508;2023-03-23T03:51:53;60.17;47.50;86.69;;
72466;Laerm;60471;52.150;4.508;2023-03-23T03:54:19;55.66;50.53;71.21;;
72466;Laerm;60471;52.150;4.508;2023-03-23T03:56:45;55.68;49.73;71.64;;
72466;Laerm;60471;52.150;4.508;2023-03-23T03:59:12;57.05;50.70;75.45;;
72466;Laerm;60471;52.150;4.508;2023-03-23T04:01:38;57.91;50.05;80.74;;
72466;Laerm;60471;52.150;4.508;2023-03-23T04:04:05;55.70;49.22;73.76;;
72466;Laerm;60471;52.150;4.508;2023-03-23T04:06:34;56.50;50.76;73.02;;
72466;Laerm;60471;52.150;4.508;2023-03-23T04:09:04;56.76;50.78;72.90;;
72466;Laerm;60471;52.150;4.508;2023-03-23T04:11:32;56.45;50.22;75.02;;
72466;Laerm;60471;52.150;4.508;2023-03-23T04:13:59;56.28;50.18;72.86;;
72466;Laerm;60471;52.150;4.508;2023-03-23T04:16:25;57.80;51.23;76.26;;
72466;Laerm;60471;52.150;4.508;2023-03-23T04:18:52;59.45;52.51;83.29;;
72466;Laerm;60471;52.150;4.508;2023-03-23T04:21:18;57.22;51.74;68.50;;
72466;Laerm;60471;52.150;4.508;2023-03-23T04:23:44;59.76;51.39;82.15;;
72466;Laerm;60471;52.150;4.508;2023-03-23T04:26:11;57.94;51.54;70.27;;
72466;Laerm;60471;52.150;4.508;2023-03-23T04:28:40;59.17;51.55;83.16;;
72466;Laerm;60471;52.150;4.508;2023-03-23T04:31:07;58.52;52.27;75.22;;
72466;Laerm;60471;52.150;4.508;2023-03-23T04:33:34;58.73;52.34;74.47;;
72466;Laerm;60471;52.150;4.508;2023-03-23T04:36:03;61.22;53.75;84.57;;
72466;Laerm;60471;52.150;4.508;2023-03-23T04:38:32;59.70;53.78;72.75;;
72466;Laerm;60471;52.150;4.508;2023-03-23T04:41:01;59.63;53.90;75.24;;
72466;Laerm;60471;52.150;4.508;2023-03-23T04:43:29;61.18;54.43;84.36;;
72466;Laerm;60471;52.150;4.508;2023-03-23T04:45:58;58.58;52.59;71.77;;
72466;Laerm;60471;52.150;4.508;2023-03-23T04:48:29;59.51;54.14;72.44;;
72466;Laerm;60471;52.150;4.508;2023-03-23T04:50:56;61.43;53.86;80.32;;
72466;Laerm;60471;52.150;4.508;2023-03-23T04:53:23;60.83;54.79;75.51;;
72466;Laerm;60471;52.150;4.508;2023-03-23T04:55:49;60.49;54.36;76.36;;
72466;Laerm;60471;52.150;4.508;2023-03-23T04:58:16;59.66;54.57;73.53;;
72466;Laerm;60471;52.150;4.508;2023-03-23T05:00:43;60.28;55.13;76.89;;
72466;Laerm;60471;52.150;4.508;2023-03-23T05:03:16;61.41;55.49;78.50;;
72466;Laerm;60471;52.150;4.508;2023-03-23T05:05:44;62.49;55.44;88.82;;
72466;Laerm;60471;52.150;4.508;2023-03-23T05:08:14;62.50;53.96;82.51;;
72466;Laerm;60471;52.150;4.508;2023-03-23T05:10:40;60.34;54.18;83.90;;
72466;Laerm;60471;52.150;4.508;2023-03-23T05:13:06;62.53;55.09;81.76;;
72466;Laerm;60471;52.150;4.508;2023-03-23T05:15:33;59.84;54.95;68.57;;
72466;Laerm;60471;52.150;4.508;2023-03-23T05:17:59;62.29;54.30;82.21;;
72466;Laerm;60471;52.150;4.508;2023-03-23T05:20:25;61.47;55.96;82.25;;
72466;Laerm;60471;52.150;4.508;2023-03-23T05:22:51;63.73;56.36;91.76;;
72466;Laerm;60471;52.150;4.508;2023-03-23T05:25:18;64.17;57.06;87.41;;
72466;Laerm;60471;52.150;4.508;2023-03-23T05:27:46;63.44;56.45;81.89;;
72466;Laerm;60471;52.150;4.508;2023-03-23T05:30:20;61.40;56.22;72.28;;
72466;Laerm;60471;52.150;4.508;2023-03-23T05:32:50;62.14;55.47;85.65;;
72466;Laerm;60471;52.150;4.508;2023-03-23T05:35:18;61.39;55.75;73.37;;
72466;Laerm;60471;52.150;4.508;2023-03-23T05:37:46;62.09;56.17;81.89;;
72466;Laerm;60471;52.150;4.508;2023-03-23T05:40:13;61.04;55.63;80.72;;
72466;Laerm;60471;52.150;4.508;2023-03-23T05:42:41;62.10;55.26;84.00;;
72466;Laerm;60471;52.150;4.508;2023-03-23T05:45:09;61.33;55.18;74.90;;
72466;Laerm;60471;52.150;4.508;2023-03-23T05:47:40;62.52;56.19;75.70;;
72466;Laerm;60471;52.150;4.508;2023-03-23T05:50:09;62.73;56.44;78.54;;
72466;Laerm;60471;52.150;4.508;2023-03-23T05:52:37;61.39;56.27;77.87;;
72466;Laerm;60471;52.150;4.508;2023-03-23T05:55:04;63.84;57.19;80.93;;
72466;Laerm;60471;52.150;4.508;2023-03-23T05:57:31;62.08;56.53;85.04;;
72466;Laerm;60471;52.150;4.508;2023-03-23T05:59:57;61.22;55.07;80.19;;
72466;Laerm;60471;52.150;4.508;2023-03-23T06:02:25;62.91;56.76;81.98;;
72466;Laerm;60471;52.150;4.508;2023-03-23T06:04:54;63.91;56.50;87.37;;
72466;Laerm;60471;52.150;4.508;2023-03-23T06:07:24;61.95;54.73;80.59;;
72466;Laerm;60471;52.150;4.508;2023-03-23T06:09:54;62.89;55.83;81.42;;
72466;Laerm;60471;52.150;4.508;2023-03-23T06:12:20;62.51;57.18;78.77;;
72466;Laerm;60471;52.150;4.508;2023-03-23T06:14:48;61.39;56.55;70.06;;
72466;Laerm;60471;52.150;4.508;2023-03-23T06:17:16;63.67;55.94;81.65;;
72466;Laerm;60471;52.150;4.508;2023-03-23T06:19:43;62.58;56.84;74.82;;
72466;Laerm;60471;52.150;4.508;2023-03-23T06:22:13;64.59;57.08;87.21;;
72466;Laerm;60471;52.150;4.508;2023-03-23T06:24:39;64.33;55.98;89.76;;
72466;Laerm;60471;52.150;4.508;2023-03-23T06:27:05;61.30;56.07;74.10;;
72466;Laerm;60471;52.150;4.508;2023-03-23T06:29:32;66.37;55.97;91.32;;
72466;Laerm;60471;52.150;4.508;2023-03-23T06:32:02;63.24;55.94;81.57;;
72466;Laerm;60471;52.150;4.508;2023-03-23T06:34:30;64.10;57.14;85.44;;
72466;Laerm;60471;52.150;4.508;2023-03-23T06:36:57;61.30;54.81;71.30;;
72466;Laerm;60471;52.150;4.508;2023-03-23T06:39:23;60.54;55.00;76.94;;
72466;Laerm;60471;52.150;4.508;2023-03-23T06:41:50;63.00;56.18;80.41;;
72466;Laerm;60471;52.150;4.508;2023-03-23T06:44:17;62.69;55.76;81.59;;
72466;Laerm;60471;52.150;4.508;2023-03-23T06:46:43;61.98;55.48;76.19;;
72466;Laerm;60471;52.150;4.508;2023-03-23T06:49:09;63.84;56.16;88.41;;
72466;Laerm;60471;52.150;4.508;2023-03-23T06:51:36;64.77;58.55;81.78;;
72466;Laerm;60471;52.150;4.508;2023-03-23T06:54:04;61.85;55.74;76.34;;
72466;Laerm;60471;52.150;4.508;2023-03-23T06:56:31;61.83;55.64;73.31;;
72466;Laerm;60471;52.150;4.508;2023-03-23T06:58:57;62.25;55.93;74.11;;
72466;Laerm;60471;52.150;4.508;2023-03-23T07:01:23;63.71;57.40;72.86;;
72466;Laerm;60471;52.150;4.508;2023-03-23T07:03:50;64.09;56.07;84.71;;
72466;Laerm;60471;52.150;4.508;2023-03-23T07:06:16;62.22;55.87;74.46;;
72466;Laerm;60471;52.150;4.508;2023-03-23T07:08:42;62.18;55.52;74.36;;
72466;Laerm;60471;52.150;4.508;2023-03-23T07:11:08;63.63;56.17;83.97;;
72466;Laerm;60471;52.150;4.508;2023-03-23T07:13:36;61.78;55.54;71.89;;
72466;Laerm;60471;52.150;4.508;2023-03-23T07:16:05;62.27;55.90;81.42;;
72466;Laerm;60471;52.150;4.508;2023-03-23T07:18:32;61.67;56.13;74.27;;
72466;Laerm;60471;52.150;4.508;2023-03-23T07:20:59;62.71;56.16;80.32;;
72466;Laerm;60471;52.150;4.508;2023-03-23T07:23:25;61.96;56.09;70.27;;
72466;Laerm;60471;52.150;4.508;2023-03-23T07:25:52;61.48;54.46;78.08;;
72466;Laerm;60471;52.150;4.508;2023-03-23T07:28:19;61.54;54.57;75.57;;
72466;Laerm;60471;52.150;4.508;2023-03-23T07:30:46;60.46;54.88;69.27;;
72466;Laerm;60471;52.150;4.508;2023-03-23T07:33:12;64.03;56.29;87.49;;
72466;Laerm;60471;52.150;4.508;2023-03-23T07:35:38;61.45;54.95;72.55;;
72466;Laerm;60471;52.150;4.508;2023-03-23T07:38:06;62.51;55.19;74.58;;
72466;Laerm;60471;52.150;4.508;2023-03-23T07:40:33;61.20;54.69;76.83;;
72466;Laerm;60471;52.150;4.508;2023-03-23T07:43:02;61.62;55.19;74.04;;
72466;Laerm;60471;52.150;4.508;2023-03-23T07:45:29;62.27;54.20;81.28;;
72466;Laerm;60471;52.150;4.508;2023-03-23T07:47:57;63.42;55.94;85.59;;
72466;Laerm;60471;52.150;4.508;2023-03-23T07:50:24;62.08;56.30;71.97;;
72466;Laerm;60471;52.150;4.508;2023-03-23T07:52:55;61.80;55.53;82.11;;
72466;Laerm;60471;52.150;4.508;2023-03-23T07:55:22;61.67;55.99;79.15;;
72466;Laerm;60471;52.150;4.508;2023-03-23T07:57:53;61.77;56.28;71.05;;
72466;Laerm;60471;52.150;4.508;2023-03-23T08:00:23;63.18;54.94;77.00;;
72466;Laerm;60471;52.150;4.508;2023-03-23T08:02:55;61.38;55.34;68.40;;
72466;Laerm;60471;52.150;4.508;2023-03-23T08:05:24;61.44;54.21;77.00;;
72466;Laerm;60471;52.150;4.508;2023-03-23T08:07:54;61.71;54.22;79.70;;
72466;Laerm;60471;52.150;4.508;2023-03-23T08:10:22;61.49;55.64;80.34;;
72466;Laerm;60471;52.150;4.508;2023-03-23T08:12:55;61.80;55.79;76.25;;
72466;Laerm;60471;52.150;4.508;2023-03-23T08:15:22;61.93;56.54;70.24;;
72466;Laerm;60471;52.150;4.508;2023-03-23T08:17:50;61.01;56.16;69.53;;
72466;Laerm;60471;52.150;4.508;2023-03-23T08:20:17;61.76;56.01;72.35;;
72466;Laerm;60471;52.150;4.508;2023-03-23T08:22:53;61.47;55.69;74.01;;
72466;Laerm;60471;52.150;4.508;2023-03-23T08:25:23;61.78;55.06;77.12;;
72466;Laerm;60471;52.150;4.508;2023-03-23T08:27:50;60.99;54.45;78.01;;
72466;Laerm;60471;52.150;4.508;2023-03-23T08:30:20;61.95;55.26;80.64;;
72466;Laerm;60471;52.150;4.508;2023-03-23T08:32:49;60.47;53.59;68.56;;
72466;Laerm;60471;52.150;4.508;2023-03-23T08:35:18;61.99;55.20;68.84;;
72466;Laerm;60471;52.150;4.508;2023-03-23T08:37:45;61.64;55.73;78.98;;
72466;Laerm;60471;52.150;4.508;2023-03-23T08:40:14;62.42;55.07;88.19;;
72466;Laerm;60471;52.150;4.508;2023-03-23T08:42:43;62.21;56.80;79.38;;
72466;Laerm;60471;52.150;4.508;2023-03-23T08:45:14;62.30;55.29;82.49;;
72466;Laerm;60471;52.150;4.508;2023-03-23T08:47:42;61.99;55.60;78.74;;
72466;Laerm;60471;52.150;4.508;2023-03-23T08:50:14;62.24;55.35;80.50;;
72466;Laerm;60471;52.150;4.508;2023-03-23T08:52:41;60.97;55.94;73.79;;
72466;Laerm;60471;52.150;4.508;2023-03-23T08:55:08;61.64;53.72;75.50;;
72466;Laerm;60471;52.150;4.508;2023-03-23T08:57:35;61.32;55.64;69.49;;
72466;Laerm;60471;52.150;4.508;2023-03-23T09:00:07;59.66;53.00;68.55;;
72466;Laerm;60471;52.150;4.508;2023-03-23T09:02:43;60.44;52.99;76.59;;
72466;Laerm;60471;52.150;4.508;2023-03-23T09:05:10;61.08;55.16;71.26;;
72466;Laerm;60471;52.150;4.508;2023-03-23T09:07:44;61.31;55.43;76.72;;
72466;Laerm;60471;52.150;4.508;2023-03-23T09:10:11;62.39;55.15;80.21;;
72466;Laerm;60471;52.150;4.508;2023-03-23T09:12:40;62.83;54.79;85.77;;
72466;Laerm;60471;52.150;4.508;2023-03-23T09:15:09;62.86;56.82;81.60;;
72466;Laerm;60471;52.150;4.508;2023-03-23T09:17:40;64.43;56.51;85.77;;
72466;Laerm;60471;52.150;4.508;2023-03-23T09:20:36;62.22;54.32;78.07;;
72466;Laerm;60471;52.150;4.508;2023-03-23T09:23:03;62.57;55.76;85.74;;
72466;Laerm;60471;52.150;4.508;2023-03-23T09:25:31;61.57;54.78;78.66;;
72466;Laerm;60471;52.150;4.508;2023-03-23T09:27:58;63.34;55.86;81.15;;
72466;Laerm;60471;52.150;4.508;2023-03-23T09:30:29;61.96;54.28;77.43;;
72466;Laerm;60471;52.150;4.508;2023-03-23T09:32:57;63.78;55.70;87.03;;
72466;Laerm;60471;52.150;4.508;2023-03-23T09:35:24;63.58;55.60;89.30;;
72466;Laerm;60471;52.150;4.508;2023-03-23T09:37:52;61.06;54.91;72.77;;
72466;Laerm;60471;52.150;4.508;2023-03-23T09:40:26;62.39;56.11;79.72;;
72466;Laerm;60471;52.150;4.508;2023-03-23T09:43:22;61.58;54.47;79.63;;
72466;Laerm;60471;52.150;4.508;2023-03-23T09:49:41;61.28;54.22;78.79;;
72466;Laerm;60471;52.150;4.508;2023-03-23T09:52:15;61.42;55.13;75.88;;
72466;Laerm;60471;52.150;4.508;2023-03-23T09:54:48;62.50;55.17;80.82;;
72466;Laerm;60471;52.150;4.508;2023-03-23T09:57:33;63.16;55.25;91.32;;
72466;Laerm;60471;52.150;4.508;2023-03-23T10:00:15;63.21;56.49;80.73;;
72466;Laerm;60471;52.150;4.508;2023-03-23T10:03:15;60.68;54.16;75.09;;
72466;Laerm;60471;52.150;4.508;2023-03-23T10:05:46;61.38;55.46;78.75;;
72466;Laerm;60471;52.150;4.508;2023-03-23T10:08:17;62.50;55.80;83.29;;
72466;Laerm;60471;52.150;4.508;2023-03-23T10:17:14;65.24;56.08;89.36;;
72466;Laerm;60471;52.150;4.508;2023-03-23T10:20:09;62.85;54.61;84.67;;
72466;Laerm;60471;52.150;4.508;2023-03-23T10:22:57;61.66;54.49;74.62;;
72466;Laerm;60471;52.150;4.508;2023-03-23T10:25:37;61.69;53.92;78.57;;
72466;Laerm;60471;52.150;4.508;2023-03-23T10:28:18;61.89;55.13;76.75;;
72466;Laerm;60471;52.150;4.508;2023-03-23T10:30:49;60.66;54.24;70.43;;
72466;Laerm;60471;52.150;4.508;2023-03-23T10:33:38;60.48;54.55;67.84;;
72466;Laerm;60471;52.150;4.508;2023-03-23T10:36:25;62.43;54.61;73.34;;
72466;Laerm;60471;52.150;4.508;2023-03-23T10:39:09;61.23;54.01;86.66;;
72466;Laerm;60471;52.150;4.508;2023-03-23T10:41:38;60.71;53.87;80.37;;
72466;Laerm;60471;52.150;4.508;2023-03-23T10:44:14;61.79;55.00;74.47;;
72466;Laerm;60471;52.150;4.508;2023-03-23T10:49:25;63.53;55.48;84.31;;
72466;Laerm;60471;52.150;4.508;2023-03-23T10:54:50;62.68;54.80;80.51;;
72466;Laerm;60471;52.150;4.508;2023-03-23T10:57:24;65.00;54.69;86.01;;
72466;Laerm;60471;52.150;4.508;2023-03-23T11:03:04;63.52;55.93;83.49;;
72466;Laerm;60471;52.150;4.508;2023-03-23T11:05:41;61.93;56.24;75.08;;
72466;Laerm;60471;52.150;4.508;2023-03-23T11:08:15;62.02;54.07;77.61;;
72466;Laerm;60471;52.150;4.508;2023-03-23T11:13:52;62.70;54.79;80.43;;
72466;Laerm;60471;52.150;4.508;2023-03-23T11:18:51;63.71;54.89;82.51;;
72466;Laerm;60471;52.150;4.508;2023-03-23T11:21:22;62.36;55.41;81.98;;
72466;Laerm;60471;52.150;4.508;2023-03-23T11:23:54;63.71;54.84;90.05;;
72466;Laerm;60471;52.150;4.508;2023-03-23T11:29:30;61.79;55.50;78.38;;
72466;Laerm;60471;52.150;4.508;2023-03-23T11:37:16;61.10;53.92;79.12;;
72466;Laerm;60471;52.150;4.508;2023-03-23T11:42:58;60.61;55.14;73.74;;
72466;Laerm;60471;52.150;4.508;2023-03-23T11:45:39;61.43;55.06;82.56;;
72466;Laerm;60471;52.150;4.508;2023-03-23T11:51:08;62.58;54.47;91.54;;
72466;Laerm;60471;52.150;4.508;2023-03-23T11:56:34;61.82;53.57;79.20;;
72466;Laerm;60471;52.150;4.508;2023-03-23T11:59:02;62.23;55.59;76.82;;
72466;Laerm;60471;52.150;4.508;2023-03-23T12:01:57;62.11;55.67;78.76;;
72466;Laerm;60471;52.150;4.508;2023-03-23T12:14:51;63.39;55.01;90.71;;
72466;Laerm;60471;52.150;4.508;2023-03-23T12:17:27;65.35;55.44;88.32;;
72466;Laerm;60471;52.150;4.508;2023-03-23T12:23:08;63.22;55.36;83.59;;
72466;Laerm;60471;52.150;4.508;2023-03-23T12:29:01;61.33;55.16;74.38;;
72466;Laerm;60471;52.150;4.508;2023-03-23T12:31:49;63.39;55.84;85.41;;
72466;Laerm;60471;52.150;4.508;2023-03-23T12:43:04;61.97;54.36;84.03;;
72466;Laerm;60471;52.150;4.508;2023-03-23T12:48:26;62.23;55.55;75.53;;
72466;Laerm;60471;52.150;4.508;2023-03-23T12:51:11;63.95;55.97;87.00;;
72466;Laerm;60471;52.150;4.508;2023-03-23T12:54:13;65.89;55.56;90.75;;
72466;Laerm;60471;52.150;4.508;2023-03-23T13:02:52;63.94;54.47;84.17;;
72466;Laerm;60471;52.150;4.508;2023-03-23T13:08:14;65.15;53.42;92.24;;
72466;Laerm;60471;52.150;4.508;2023-03-23T13:10:47;64.73;55.75;88.78;;
72466;Laerm;60471;52.150;4.508;2023-03-23T13:13:23;63.82;55.20;80.09;;
72466;Laerm;60471;52.150;4.508;2023-03-23T13:16:12;67.80;55.39;95.57;;
72466;Laerm;60471;52.150;4.508;2023-03-23T13:19:03;63.42;54.19;82.87;;
72466;Laerm;60471;52.150;4.508;2023-03-23T13:21:45;62.57;54.23;80.78;;
72466;Laerm;60471;52.150;4.508;2023-03-23T13:24:18;65.06;56.57;88.06;;
72466;Laerm;60471;52.150;4.508;2023-03-23T13:26:50;64.41;56.35;83.36;;
72466;Laerm;60471;52.150;4.508;2023-03-23T13:29:20;63.07;56.09;79.21;;
72466;Laerm;60471;52.150;4.508;2023-03-23T13:31:51;64.70;54.77;84.35;;
72466;Laerm;60471;52.150;4.508;2023-03-23T13:37:06;64.77;54.51;88.41;;
72466;Laerm;60471;52.150;4.508;2023-03-23T13:50:12;65.41;54.00;93.18;;
72466;Laerm;60471;52.150;4.508;2023-03-23T13:55:42;61.59;54.35;76.33;;
72466;Laerm;60471;52.150;4.508;2023-03-23T14:00:49;66.38;54.27;89.46;;
72466;Laerm;60471;52.150;4.508;2023-03-23T14:03:39;61.81;53.22;81.19;;
72466;Laerm;60471;52.150;4.508;2023-03-23T14:06:14;59.77;54.21;70.65;;
72466;Laerm;60471;52.150;4.508;2023-03-23T14:08:44;61.36;53.00;79.61;;
72466;Laerm;60471;52.150;4.508;2023-03-23T14:11:23;62.64;54.76;79.34;;
72466;Laerm;60471;52.150;4.508;2023-03-23T14:14:20;62.41;53.85;85.12;;
72466;Laerm;60471;52.150;4.508;2023-03-23T14:16:50;64.10;54.68;85.73;;
72466;Laerm;60471;52.150;4.508;2023-03-23T14:19:29;63.18;56.04;85.81;;
72466;Laerm;60471;52.150;4.508;2023-03-23T14:21:59;60.74;53.87;74.43;;
72466;Laerm;60471;52.150;4.508;2023-03-23T14:24:33;59.91;53.85;78.23;;
72466;Laerm;60471;52.150;4.508;2023-03-23T14:29:33;62.78;54.90;84.72;;
72466;Laerm;60471;52.150;4.508;2023-03-23T14:32:01;60.53;53.01;78.10;;
72466;Laerm;60471;52.150;4.508;2023-03-23T14:34:32;60.08;52.55;76.07;;
72466;Laerm;60471;52.150;4.508;2023-03-23T14:37:00;60.74;53.63;75.61;;
72466;Laerm;60471;52.150;4.508;2023-03-23T14:39:29;60.32;52.21;69.89;;
72466;Laerm;60471;52.150;4.508;2023-03-23T14:42:09;61.65;53.42;86.05;;
72466;Laerm;60471;52.150;4.508;2023-03-23T14:44:42;63.33;54.82;85.82;;
72466;Laerm;60471;52.150;4.508;2023-03-23T14:47:23;60.85;53.35;78.82;;
72466;Laerm;60471;52.150;4.508;2023-03-23T14:49:55;63.47;53.19;83.85;;
72466;Laerm;60471;52.150;4.508;2023-03-23T14:52:26;63.71;54.78;84.01;;
72466;Laerm;60471;52.150;4.508;2023-03-23T14:54:53;60.94;54.31;75.65;;
72466;Laerm;60471;52.150;4.508;2023-03-23T14:57:29;61.78;52.39;89.10;;
72466;Laerm;60471;52.150;4.508;2023-03-23T14:59:56;61.35;54.87;77.67;;
72466;Laerm;60471;52.150;4.508;2023-03-23T15:04:57;62.97;54.56;80.37;;
72466;Laerm;60471;52.150;4.508;2023-03-23T15:07:31;60.21;53.94;74.94;;
72466;Laerm;60471;52.150;4.508;2023-03-23T15:09:58;63.16;54.24;73.39;;
72466;Laerm;60471;52.150;4.508;2023-03-23T15:12:30;63.54;55.78;84.04;;
72466;Laerm;60471;52.150;4.508;2023-03-23T15:15:02;61.70;54.10;72.93;;
72466;Laerm;60471;52.150;4.508;2023-03-23T15:17:34;61.12;53.81;82.12;;
72466;Laerm;60471;52.150;4.508;2023-03-23T15:20:19;60.93;53.13;69.35;;
72466;Laerm;60471;52.150;4.508;2023-03-23T15:22:48;62.53;54.70;84.95;;
72466;Laerm;60471;52.150;4.508;2023-03-23T15:27:55;60.20;54.37;76.56;;
72466;Laerm;60471;52.150;4.508;2023-03-23T15:32:53;62.37;53.59;75.78;;
72466;Laerm;60471;52.150;4.508;2023-03-23T15:35:23;60.43;53.76;74.92;;
72466;Laerm;60471;52.150;4.508;2023-03-23T15:38:01;60.62;52.55;72.11;;
72466;Laerm;60471;52.150;4.508;2023-03-23T15:40:37;59.69;52.87;69.17;;
72466;Laerm;60471;52.150;4.508;2023-03-23T15:43:21;60.04;52.89;67.69;;
72466;Laerm;60471;52.150;4.508;2023-03-23T15:45:59;61.41;53.82;86.85;;
72466;Laerm;60471;52.150;4.508;2023-03-23T15:48:32;60.77;54.53;72.96;;
72466;Laerm;60471;52.150;4.508;2023-03-23T15:51:02;60.74;52.63;84.07;;
72466;Laerm;60471;52.150;4.508;2023-03-23T15:53:35;59.42;53.34;66.69;;
72466;Laerm;60471;52.150;4.508;2023-03-23T15:56:08;60.77;55.01;70.00;;
72466;Laerm;60471;52.150;4.508;2023-03-23T15:58:37;60.83;52.99;83.90;;
72466;Laerm;60471;52.150;4.508;2023-03-23T16:06:14;60.38;53.45;71.65;;
72466;Laerm;60471;52.150;4.508;2023-03-23T16:08:41;59.93;53.17;81.48;;
72466;Laerm;60471;52.150;4.508;2023-03-23T16:11:17;61.92;54.17;79.12;;
72466;Laerm;60471;52.150;4.508;2023-03-23T16:13:44;60.21;54.05;74.04;;
72466;Laerm;60471;52.150;4.508;2023-03-23T16:16:16;59.62;53.11;69.47;;
72466;Laerm;60471;52.150;4.508;2023-03-23T16:18:43;61.08;54.03;80.26;;
72466;Laerm;60471;52.150;4.508;2023-03-23T16:21:10;59.44;53.49;67.55;;
72466;Laerm;60471;52.150;4.508;2023-03-23T16:23:36;59.76;53.58;70.85;;
72466;Laerm;60471;52.150;4.508;2023-03-23T16:26:03;60.67;54.27;75.07;;
72466;Laerm;60471;52.150;4.508;2023-03-23T16:28:29;61.38;54.61;85.29;;
72466;Laerm;60471;52.150;4.508;2023-03-23T16:30:55;61.34;54.70;77.44;;
72466;Laerm;60471;52.150;4.508;2023-03-23T16:33:21;61.24;55.17;83.51;;
72466;Laerm;60471;52.150;4.508;2023-03-23T16:35:48;61.05;54.38;68.88;;
72466;Laerm;60471;52.150;4.508;2023-03-23T16:38:16;60.17;54.75;72.79;;
72466;Laerm;60471;52.150;4.508;2023-03-23T16:40:44;60.92;54.92;75.08;;
72466;Laerm;60471;52.150;4.508;2023-03-23T16:43:11;60.77;54.85;70.77;;
72466;Laerm;60471;52.150;4.508;2023-03-23T16:45:41;61.28;53.93;76.82;;
72466;Laerm;60471;52.150;4.508;2023-03-23T16:48:09;66.32;54.90;84.02;;
72466;Laerm;60471;52.150;4.508;2023-03-23T16:50:37;60.68;53.35;72.36;;
72466;Laerm;60471;52.150;4.508;2023-03-23T16:53:06;61.37;55.02;74.47;;
72466;Laerm;60471;52.150;4.508;2023-03-23T16:55:34;61.03;53.69;70.73;;
72466;Laerm;60471;52.150;4.508;2023-03-23T16:58:01;61.04;54.65;68.45;;
72466;Laerm;60471;52.150;4.508;2023-03-23T17:00:27;64.02;54.50;80.81;;
72466;Laerm;60471;52.150;4.508;2023-03-23T17:02:55;61.37;52.95;72.49;;
72466;Laerm;60471;52.150;4.508;2023-03-23T17:05:27;60.16;53.20;68.26;;
72466;Laerm;60471;52.150;4.508;2023-03-23T17:07:55;60.80;52.56;70.16;;
72466;Laerm;60471;52.150;4.508;2023-03-23T17:10:24;59.68;53.45;66.65;;
72466;Laerm;60471;52.150;4.508;2023-03-23T17:12:53;60.83;52.34;76.46;;
72466;Laerm;60471;52.150;4.508;2023-03-23T17:15:19;60.56;52.50;80.04;;
72466;Laerm;60471;52.150;4.508;2023-03-23T17:17:46;60.28;54.04;71.47;;
72466;Laerm;60471;52.150;4.508;2023-03-23T17:20:13;60.85;53.59;68.71;;
72466;Laerm;60471;52.150;4.508;2023-03-23T17:22:39;59.74;51.96;69.77;;
72466;Laerm;60471;52.150;4.508;2023-03-23T17:25:07;61.39;54.78;70.52;;
72466;Laerm;60471;52.150;4.508;2023-03-23T17:27:35;60.46;52.27;67.45;;
72466;Laerm;60471;52.150;4.508;2023-03-23T17:30:09;59.79;52.96;65.81;;